Date,TemperatureHighF,TemperatureAvgF,TemperatureLowF,DewpointHighF,DewpointAvgF,DewpointLowF,HumidityHigh,HumidityAvg,HumidityLow,PressureMaxIn,PressureMinIn,WindSpeedMaxMPH,WindSpeedAvgMPH,GustSpeedMaxMPH,PrecipitationSumIn
2013-6-1,88,75,66,74,69,65,99,82,60,29.72,29.48,9,2,22,0.43
2013-6-2,80,70,61,66,62,55,99,78,55,29.70,29.50,8,3,17,0.09
2013-6-3,64,58,46,56,47,39,88,69,42,29.89,29.70,8,3,16,0.00
2013-6-4,70,56,41,57,45,40,99,72,40,29.96,29.88,7,1,14,0.00
2013-6-5,78,63,46,58,50,42,95,66,41,29.95,29.70,8,2,15,0.00
2013-6-6,62,58,55,62,55,49,99,90,65,29.71,29.58,6,2,11,0.35
2013-6-7,61,58,56,58,56,55,99,93,88,29.67,29.61,6,3,10,0.01
2013-6-8,74,66,56,61,56,52,99,73,59,29.87,29.66,4,1,8,0.00
2013-6-9,84,71,56,64,59,52,87,67,48,29.89,29.71,7,2,14,0.00
2013-6-10,76,70,64,72,67,62,99,90,73,29.71,29.49,6,1,11,0.59
2013-6-11,83,72,63,69,66,63,99,81,62,29.65,29.53,10,2,17,0.00
2013-6-12,84,74,63,73,68,63,99,83,63,29.66,29.41,5,1,13,0.00
2013-6-13,74,67,61,69,62,55,99,85,57,29.64,29.25,15,5,23,0.46
2013-6-14,72,63,54,62,57,51,99,82,56,29.86,29.62,8,2,14,0.05
2013-6-15,86,68,48,70,57,48,99,74,37,29.89,29.72,4,1,8,0.01
2013-6-16,85,73,64,71,66,60,99,81,60,29.74,29.58,9,2,17,0.30
2013-6-17,87,74,62,76,65,60,99,77,48,29.71,29.60,6,1,12,0.01
2013-6-18,77,68,57,66,59,53,92,75,57,29.81,29.62,11,3,21,0.00
2013-6-19,75,63,48,64,52,47,99,70,45,29.96,29.80,8,2,17,0.00
2013-6-20,82,69,48,65,54,47,99,65,37,29.99,29.91,8,1,11,0.00
2013-6-21,93,75,55,68,61,53,96,66,40,30.00,29.86,5,1,11,0.00
2013-6-22,97,82,67,77,69,60,81,66,50,29.91,29.73,4,1,11,0.00
2013-6-23,95,83,69,75,70,66,93,67,43,29.86,29.72,5,1,12,0.00
2013-6-24,94,81,65,73,68,62,93,68,43,29.87,29.69,5,1,15,0.00
2013-6-25,93,79,64,76,71,64,99,77,51,29.76,29.56,19,2,36,1.75
2013-6-26,90,81,70,78,72,69,99,74,58,29.63,29.50,8,2,14,0.47
2013-6-27,84,74,67,74,70,67,99,88,65,29.54,29.39,5,1,10,0.53
2013-6-28,80,70,62,73,65,60,99,85,62,29.40,29.24,9,2,17,0.05
2013-6-29,79,69,61,70,65,60,99,88,68,29.45,29.29,8,1,11,0.05
2013-6-30,75,69,61,70,64,61,99,87,71,29.65,29.45,8,2,12,0.06